createdAt,value
2019-05-14T00:02:02.552Z,5.90
2019-05-14T00:04:35.594Z,5.72
2019-05-14T00:07:12.169Z,6.37
2019-05-14T00:09:47.293Z,6.70
2019-05-14T00:12:22.418Z,6.17
2019-05-14T00:14:57.384Z,6.10
2019-05-14T00:17:37.861Z,6.10
2019-05-14T00:20:13.533Z,6.53
2019-05-14T00:22:52.212Z,6.83
2019-05-14T00:25:31.322Z,6.90
2019-05-14T00:28:04.995Z,9.65
2019-05-14T00:30:42.078Z,9.40
2019-05-14T00:33:15.658Z,8.73
2019-05-14T00:35:51.452Z,8.10
2019-05-14T00:38:25.737Z,7.53
2019-05-14T00:41:02.050Z,6.28
2019-05-14T00:43:37.758Z,5.97
2019-05-14T00:46:12.574Z,6.17
2019-05-14T00:48:51.252Z,6.87
2019-05-14T00:51:25.933Z,6.87
2019-05-14T00:54:01.719Z,7.10
2019-05-14T00:56:37.243Z,6.95
2019-05-14T00:59:11.944Z,6.80
2019-05-14T01:01:46.842Z,7.83
2019-05-14T01:04:22.274Z,7.63
2019-05-14T01:06:56.987Z,7.17
2019-05-14T01:09:31.632Z,8.28
2019-05-14T01:12:06.196Z,7.70
2019-05-14T01:14:42.345Z,7.25
2019-05-14T01:17:16.726Z,7.95
2019-05-14T01:19:51.372Z,8.18
2019-05-14T01:22:25.666Z,8.03
2019-05-14T01:25:01.686Z,8.93
2019-05-14T01:27:36.230Z,8.10
2019-05-14T01:30:12.446Z,8.43
2019-05-14T01:32:46.721Z,10.82
2019-05-14T01:35:22.216Z,9.83
2019-05-14T01:37:57.905Z,8.80
2019-05-14T01:40:33.492Z,9.28
2019-05-14T01:43:08.061Z,10.23
2019-05-14T01:45:42.366Z,8.48
2019-05-14T01:48:18.048Z,9.60
2019-05-14T01:50:52.755Z,10.15
2019-05-14T01:53:27.226Z,8.70
2019-05-14T01:56:04.351Z,6.50
2019-05-14T01:58:41.739Z,6.12
2019-05-14T02:01:21.685Z,6.25
2019-05-14T02:03:56.457Z,7.85
2019-05-14T02:06:34.238Z,6.55
2019-05-14T02:09:12.508Z,7.42
2019-05-14T02:11:53.676Z,6.80
2019-05-14T02:14:31.310Z,6.35
2019-05-14T02:17:05.894Z,6.17
2019-05-14T02:19:52.778Z,5.53
2019-05-14T02:22:36.192Z,5.80
2019-05-14T02:25:11.609Z,7.25
2019-05-14T02:27:47.995Z,7.62
2019-05-14T02:30:28.547Z,7.73
2019-05-14T02:32:59.605Z,8.45
2019-05-14T02:35:39.670Z,9.53
2019-05-14T02:38:13.076Z,7.25
2019-05-14T02:40:49.388Z,6.05
2019-05-14T02:43:23.479Z,7.65
2019-05-14T02:46:10.620Z,6.53
2019-05-14T02:48:33.902Z,7.15
2019-05-14T02:51:10.497Z,8.35
2019-05-14T02:53:44.275Z,6.78
2019-05-14T02:56:20.398Z,6.47
2019-05-14T02:58:54.664Z,14.75
2019-05-14T03:01:30.170Z,7.55
2019-05-14T03:04:04.980Z,7.80
2019-05-14T03:06:41.984Z,7.75
2019-05-14T03:09:20.074Z,7.17
2019-05-14T03:11:53.818Z,7.65
2019-05-14T03:14:33.250Z,7.55
2019-05-14T03:17:10.439Z,7.95
2019-05-14T03:19:50.396Z,7.67
2019-05-14T03:22:31.950Z,7.55
2019-05-14T03:25:00.867Z,7.90
2019-05-14T03:27:35.702Z,7.87
2019-05-14T03:30:12.328Z,8.88
2019-05-14T03:32:52.161Z,9.78
2019-05-14T03:35:32.804Z,8.10
2019-05-14T03:38:00.539Z,8.55
2019-05-14T03:40:35.272Z,7.78
2019-05-14T03:43:10.119Z,8.15
2019-05-14T03:45:44.881Z,7.50
2019-05-14T03:48:19.989Z,7.42
2019-05-14T03:50:55.373Z,6.85
2019-05-14T03:53:30.099Z,7.30
2019-05-14T03:56:05.266Z,7.28
2019-05-14T03:58:39.545Z,9.10
2019-05-14T04:01:13.825Z,6.90
2019-05-14T04:03:50.389Z,8.03
2019-05-14T04:06:34.145Z,6.47
2019-05-14T04:09:10.779Z,6.70
2019-05-14T04:11:46.318Z,10.40
2019-05-14T04:14:21.249Z,6.55
2019-05-14T04:17:05.280Z,8.15
2019-05-14T04:19:33.632Z,8.65
2019-05-14T04:22:10.028Z,7.83
2019-05-14T04:24:44.962Z,6.50
2019-05-14T04:27:20.303Z,6.65
2019-05-14T04:29:58.896Z,7.05
2019-05-14T04:32:33.527Z,6.97
2019-05-14T04:35:09.538Z,8.20
2019-05-14T04:37:44.277Z,7.67
2019-05-14T04:40:19.973Z,7.55
2019-05-14T04:42:54.592Z,7.67
2019-05-14T04:45:29.799Z,8.15
2019-05-14T04:48:24.198Z,7.33
2019-05-14T04:50:41.371Z,7.95
2019-05-14T04:53:33.572Z,7.65
2019-05-14T04:56:09.753Z,8.03
2019-05-14T04:58:49.249Z,8.70
2019-05-14T05:01:24.208Z,7.97
2019-05-14T05:04:00.657Z,7.97
2019-05-14T05:06:42.285Z,9.00
2019-05-14T05:09:19.774Z,7.75
2019-05-14T05:11:54.011Z,7.87
2019-05-14T05:14:29.661Z,8.43
2019-05-14T05:17:04.293Z,7.72
2019-05-14T05:19:44.779Z,8.35
2019-05-14T05:22:15.776Z,7.58
2019-05-14T05:24:50.684Z,8.30
2019-05-14T05:27:25.628Z,9.35
2019-05-14T05:30:00.353Z,8.38
2019-05-14T05:32:35.387Z,8.43
2019-05-14T05:35:10.192Z,8.40
2019-05-14T05:37:44.710Z,8.78
2019-05-14T05:40:19.841Z,9.20
2019-05-14T05:42:54.526Z,8.70
2019-05-14T05:45:29.164Z,10.00
2019-05-14T05:48:04.736Z,9.90
2019-05-14T05:50:39.754Z,10.70
2019-05-14T05:53:14.262Z,10.95
2019-05-14T05:55:50.081Z,9.57
2019-05-14T05:58:24.897Z,9.93
2019-05-14T06:00:59.847Z,9.38
2019-05-14T06:03:35.435Z,9.98
2019-05-14T06:06:13.398Z,10.25
2019-05-14T06:08:46.075Z,9.20
2019-05-14T06:11:20.524Z,9.78
2019-05-14T06:13:55.272Z,9.30
2019-05-14T06:16:38.480Z,9.85
2019-05-14T06:19:13.326Z,9.00
2019-05-14T06:21:49.078Z,8.88
2019-05-14T06:24:24.219Z,9.93
2019-05-14T06:26:59.116Z,10.68
2019-05-14T06:29:33.586Z,9.60
2019-05-14T06:32:09.255Z,9.78
2019-05-14T06:34:44.307Z,10.10
2019-05-14T06:37:19.809Z,10.78
2019-05-14T06:39:54.775Z,11.08
2019-05-14T06:42:29.217Z,10.80
2019-05-14T06:45:03.791Z,10.38
2019-05-14T06:47:39.407Z,11.12
2019-05-14T06:50:14.114Z,9.68
2019-05-14T06:52:49.209Z,11.75
2019-05-14T06:55:23.831Z,10.82
2019-05-14T06:57:58.615Z,10.70
2019-05-14T07:00:34.797Z,10.80
2019-05-14T07:03:10.266Z,10.08
2019-05-14T07:05:44.697Z,10.08
2019-05-14T07:08:19.174Z,14.43
2019-05-14T07:10:53.692Z,11.33
2019-05-14T07:13:29.256Z,11.45
2019-05-14T07:16:04.021Z,11.83
2019-05-14T07:18:50.706Z,10.10
2019-05-14T07:21:14.753Z,11.18
2019-05-14T07:23:49.533Z,11.60
2019-05-14T07:26:23.868Z,10.98
2019-05-14T07:28:59.051Z,11.40
2019-05-14T07:31:33.912Z,11.25
2019-05-14T07:34:09.021Z,11.45
2019-05-14T07:36:43.719Z,11.00
2019-05-14T07:39:18.755Z,10.40
2019-05-14T07:41:53.483Z,10.23
2019-05-14T07:44:29.616Z,10.20
2019-05-14T07:47:05.212Z,10.43
2019-05-14T07:49:40.164Z,11.53
2019-05-14T07:52:14.996Z,10.45
2019-05-14T07:54:49.625Z,10.93
2019-05-14T07:57:24.157Z,10.70
2019-05-14T07:59:58.995Z,12.43
2019-05-14T08:02:33.842Z,10.48
2019-05-14T08:05:08.822Z,10.65
2019-05-14T08:07:43.573Z,11.38
2019-05-14T08:10:18.603Z,11.63
2019-05-14T08:12:53.456Z,10.88
2019-05-14T08:15:28.599Z,9.83
2019-05-14T08:18:03.184Z,9.25
2019-05-14T08:20:38.012Z,10.03
2019-05-14T08:23:12.260Z,10.75
2019-05-14T08:25:48.128Z,10.00
2019-05-14T08:28:23.169Z,10.70
2019-05-14T08:30:58.506Z,10.45
2019-05-14T08:33:34.586Z,9.88
2019-05-14T08:36:09.338Z,9.38
2019-05-14T08:38:45.572Z,9.30
2019-05-14T08:41:20.886Z,11.08
2019-05-14T08:43:56.039Z,9.40
2019-05-14T08:46:30.516Z,9.08
2019-05-14T08:49:05.094Z,9.03
2019-05-14T08:51:39.439Z,8.55
2019-05-14T08:54:14.289Z,9.88
2019-05-14T08:56:49.210Z,8.83
2019-05-14T08:59:23.787Z,9.55
2019-05-14T09:02:06.287Z,9.20
2019-05-14T09:04:34.453Z,8.78
2019-05-14T09:07:09.631Z,9.70
2019-05-14T09:09:44.576Z,8.25
2019-05-14T09:19:15.433Z,9.30
2019-05-14T09:21:50.148Z,9.93
2019-05-14T09:24:24.895Z,9.43
2019-05-14T09:26:59.729Z,10.15
2019-05-14T09:29:34.492Z,10.23
2019-05-14T09:32:09.700Z,11.50
2019-05-14T09:34:44.452Z,9.88
2019-05-14T09:37:19.397Z,9.50
2019-05-14T09:39:54.005Z,9.38
2019-05-14T09:42:28.745Z,8.45
2019-05-14T09:45:03.763Z,9.45
2019-05-14T09:47:41.216Z,8.55
2019-05-14T09:50:22.019Z,9.08
2019-05-14T09:52:52.335Z,8.60
2019-05-14T09:55:28.189Z,8.90
2019-05-14T09:58:02.868Z,8.50
2019-05-14T10:00:38.969Z,8.43
2019-05-14T10:03:13.532Z,8.03
2019-05-14T10:05:50.181Z,8.13
2019-05-14T10:08:24.565Z,7.65
2019-05-14T10:11:00.592Z,7.67
2019-05-14T10:13:35.872Z,8.40
2019-05-14T10:16:10.136Z,7.92
2019-05-14T10:18:44.690Z,7.62
2019-05-14T10:21:19.843Z,7.78
2019-05-14T10:23:54.614Z,8.00
2019-05-14T10:26:29.136Z,7.95
2019-05-14T10:29:04.518Z,6.97
2019-05-14T10:31:39.875Z,7.72
2019-05-14T10:34:14.034Z,7.58
2019-05-14T10:36:48.921Z,7.53
2019-05-14T10:39:24.015Z,6.85
2019-05-14T10:41:58.217Z,8.55
2019-05-14T10:44:32.912Z,9.30
2019-05-14T10:47:09.262Z,8.20
2019-05-14T10:49:43.718Z,8.13
2019-05-14T10:52:19.719Z,7.87
2019-05-14T10:54:56.297Z,8.38
2019-05-14T10:57:33.388Z,8.37
2019-05-14T11:00:09.108Z,8.85
2019-05-14T11:02:44.322Z,9.43
2019-05-14T11:05:19.254Z,10.05
2019-05-14T11:07:54.063Z,9.58
2019-05-14T11:10:29.792Z,9.38
2019-05-14T11:13:04.685Z,8.98
2019-05-14T11:15:39.638Z,8.25
2019-05-14T11:18:14.664Z,7.85
2019-05-14T11:20:51.457Z,8.73
2019-05-14T11:23:25.970Z,9.43
2019-05-14T11:26:00.480Z,8.93
2019-05-14T11:28:34.966Z,9.00
2019-05-14T11:31:10.581Z,10.15
2019-05-14T11:33:45.452Z,11.90
2019-05-14T11:36:20.163Z,12.10
2019-05-14T11:38:55.300Z,12.33
2019-05-14T11:41:32.901Z,14.25
2019-05-14T11:44:17.801Z,13.40
2019-05-14T11:46:58.124Z,13.05
2019-05-14T11:49:28.800Z,12.00
2019-05-14T11:52:07.734Z,10.15
2019-05-14T11:54:40.902Z,10.53
2019-05-14T11:57:15.359Z,11.18
2019-05-14T11:59:53.314Z,10.35
2019-05-14T12:02:29.143Z,9.63
2019-05-14T12:05:04.003Z,10.18
2019-05-14T12:07:50.962Z,9.05
2019-05-14T12:10:38.713Z,9.05
2019-05-14T12:13:14.045Z,9.68
2019-05-14T12:15:59.252Z,10.80
2019-05-14T12:18:35.586Z,9.38
2019-05-14T12:21:18.651Z,12.98
2019-05-14T12:24:06.229Z,9.83
2019-05-14T12:27:27.547Z,10.82
2019-05-14T12:29:33.726Z,11.83
2019-05-14T12:32:12.541Z,11.17
2019-05-14T12:34:52.994Z,11.97
2019-05-14T12:37:28.927Z,14.05
2019-05-14T12:40:03.932Z,12.33
2019-05-14T12:42:39.653Z,12.20
2019-05-14T12:45:18.802Z,12.40
2019-05-14T12:47:51.718Z,12.68
2019-05-14T12:50:26.829Z,12.95
2019-05-14T12:53:02.042Z,13.30
2019-05-14T12:55:39.820Z,12.50
2019-05-14T12:58:20.715Z,12.68
2019-05-14T13:00:55.598Z,13.28
2019-05-14T13:03:34.978Z,12.73
2019-05-14T13:06:10.262Z,12.10
2019-05-14T13:08:48.962Z,12.88
2019-05-14T13:11:22.324Z,11.88
2019-05-14T13:13:59.317Z,11.57
2019-05-14T13:16:39.657Z,13.53
2019-05-14T13:19:20.498Z,12.73
2019-05-14T13:22:12.216Z,11.18
2019-05-14T13:24:49.064Z,11.75
2019-05-14T13:27:33.644Z,11.70
2019-05-14T13:30:11.276Z,12.90
2019-05-14T13:32:48.922Z,11.73
2019-05-14T13:35:24.900Z,12.58
2019-05-14T13:38:02.028Z,12.55
2019-05-14T13:40:49.193Z,13.62
2019-05-14T13:43:30.556Z,13.40
2019-05-14T13:46:07.274Z,14.47
2019-05-14T13:48:46.074Z,15.25
2019-05-14T13:51:20.772Z,16.77
2019-05-14T13:53:58.759Z,17.07
2019-05-14T13:56:32.318Z,18.62
2019-05-14T13:59:09.083Z,19.55
2019-05-14T14:01:42.914Z,20.77
2019-05-14T14:04:18.341Z,21.20
2019-05-14T14:06:55.860Z,21.77
2019-05-14T14:09:33.388Z,24.00
2019-05-14T14:12:08.547Z,25.65
2019-05-14T14:14:44.545Z,27.25
2019-05-14T14:17:19.704Z,32.93
2019-05-14T14:19:55.843Z,31.85
2019-05-14T14:22:32.411Z,31.23
2019-05-14T14:25:08.843Z,30.27
2019-05-14T14:27:43.295Z,34.83
2019-05-14T14:30:19.534Z,29.60
2019-05-14T14:32:54.481Z,28.05
2019-05-14T14:35:31.072Z,26.90
2019-05-14T14:38:08.699Z,26.42
2019-05-14T14:40:48.588Z,26.12
2019-05-14T14:43:20.632Z,25.82
2019-05-14T14:45:55.259Z,24.67
2019-05-14T14:48:30.533Z,23.52
2019-05-14T14:51:08.343Z,21.05
2019-05-14T14:53:53.309Z,21.85
2019-05-14T14:56:18.908Z,21.00
2019-05-14T14:58:54.999Z,21.12
2019-05-14T15:01:30.564Z,20.43
2019-05-14T15:04:05.413Z,22.37
2019-05-14T15:06:40.199Z,26.75
2019-05-14T15:09:14.722Z,30.48
2019-05-14T15:11:49.678Z,29.60
2019-05-14T15:14:24.370Z,28.32
2019-05-14T15:16:58.862Z,27.23
2019-05-14T15:19:33.276Z,25.92
2019-05-14T15:22:08.780Z,25.00
2019-05-14T15:24:43.381Z,24.32
2019-05-14T15:27:18.877Z,22.75
2019-05-14T15:29:53.787Z,23.60
2019-05-14T15:32:30.226Z,30.65
2019-05-14T15:35:04.732Z,39.30
2019-05-14T15:37:42.844Z,39.60
2019-05-14T15:40:15.998Z,44.00
2019-05-14T15:42:51.666Z,48.42
2019-05-14T15:45:28.650Z,39.80
2019-05-14T15:48:03.919Z,41.53
2019-05-14T15:50:38.859Z,34.58
2019-05-14T15:53:14.036Z,34.50
2019-05-14T15:55:49.853Z,29.98
2019-05-14T15:58:24.384Z,31.95
2019-05-14T16:01:01.177Z,30.75
2019-05-14T16:03:35.976Z,31.35
2019-05-14T16:06:11.149Z,31.47
2019-05-14T16:08:48.639Z,28.35
2019-05-14T16:11:22.019Z,28.73
2019-05-14T16:13:56.575Z,28.75
2019-05-14T16:16:31.121Z,29.52
2019-05-14T16:19:08.081Z,29.25
2019-05-14T16:21:41.825Z,29.50
2019-05-14T16:24:22.456Z,26.57
2019-05-14T16:26:59.436Z,27.37
2019-05-14T16:29:44.179Z,24.07
2019-05-14T16:32:12.856Z,26.87
2019-05-14T16:34:48.885Z,32.03
2019-05-14T16:37:28.047Z,31.97
2019-05-14T16:40:02.608Z,29.87
2019-05-14T16:42:39.778Z,31.50
2019-05-14T16:45:14.478Z,29.75
2019-05-14T16:47:49.325Z,34.00
2019-05-14T16:50:23.890Z,36.63
2019-05-14T16:52:58.890Z,40.17
2019-05-14T16:55:33.834Z,35.20
2019-05-14T16:58:08.985Z,36.08
2019-05-14T17:00:43.712Z,37.45
2019-05-14T17:03:19.043Z,33.80
2019-05-14T17:05:53.999Z,37.53
2019-05-14T17:08:28.678Z,28.73
2019-05-14T17:11:03.154Z,28.87
2019-05-14T17:13:38.150Z,25.50
2019-05-14T17:16:13.364Z,24.83
2019-05-14T17:18:48.604Z,24.15
2019-05-14T17:21:23.639Z,24.75
2019-05-14T17:23:58.188Z,23.90
2019-05-14T17:26:35.020Z,22.67
2019-05-14T17:29:10.206Z,23.70
2019-05-14T17:31:45.157Z,25.12
2019-05-14T17:34:19.698Z,23.75
2019-05-14T17:36:54.546Z,21.90
2019-05-14T17:39:29.221Z,20.32
2019-05-14T17:42:04.960Z,17.85
2019-05-14T17:44:39.217Z,21.15
2019-05-14T17:47:14.899Z,21.25
2019-05-14T17:49:49.341Z,20.68
2019-05-14T17:52:24.812Z,21.77
2019-05-14T17:54:59.729Z,21.68
2019-05-14T17:57:35.823Z,21.07
2019-05-14T18:00:11.253Z,17.20
2019-05-14T18:02:48.555Z,14.43
2019-05-14T18:05:22.929Z,14.50
2019-05-14T18:07:59.364Z,12.53
2019-05-14T18:10:34.582Z,13.83
2019-05-14T18:13:09.422Z,10.90
2019-05-14T18:15:44.387Z,10.95
2019-05-14T18:18:19.172Z,9.50
2019-05-14T18:20:54.154Z,10.45
2019-05-14T18:23:29.072Z,8.60
2019-05-14T18:26:08.634Z,9.45
2019-05-14T18:28:41.369Z,8.98
2019-05-14T18:31:19.618Z,8.75
2019-05-14T18:33:52.232Z,8.75
2019-05-14T18:36:28.502Z,8.30
2019-05-14T18:39:03.240Z,8.80
2019-05-14T18:41:38.937Z,8.15
2019-05-14T18:44:14.041Z,8.38
2019-05-14T18:46:48.734Z,8.33
2019-05-14T18:49:23.876Z,8.53
2019-05-14T18:51:59.687Z,8.60
2019-05-14T18:54:34.440Z,8.18
2019-05-14T18:57:12.012Z,9.67
2019-05-14T18:59:44.806Z,9.37
2019-05-14T19:02:21.026Z,8.43
2019-05-14T19:04:57.770Z,8.57
2019-05-14T19:07:32.122Z,8.40
2019-05-14T19:10:09.115Z,8.35
2019-05-14T19:12:42.657Z,7.87
2019-05-14T19:15:18.502Z,8.80
2019-05-14T19:17:53.297Z,8.17
2019-05-14T19:20:28.270Z,8.13
2019-05-14T19:23:02.878Z,8.03
2019-05-14T19:25:38.907Z,7.90
2019-05-14T19:28:13.723Z,8.13
2019-05-14T19:30:48.938Z,8.40
2019-05-14T19:33:23.710Z,8.05
2019-05-14T19:35:58.341Z,8.03
2019-05-14T19:38:32.913Z,8.03
2019-05-14T19:41:08.609Z,9.17
2019-05-14T19:43:43.805Z,8.38
2019-05-14T19:46:18.498Z,8.60
2019-05-14T19:48:53.011Z,8.33
2019-05-14T19:51:27.977Z,8.55
2019-05-14T19:54:02.663Z,8.78
2019-05-14T19:56:52.415Z,7.90
2019-05-14T19:59:13.538Z,8.40
2019-05-14T20:01:48.739Z,7.95
2019-05-14T20:04:23.524Z,8.40
2019-05-14T20:06:57.975Z,8.45
2019-05-14T20:09:32.853Z,8.55
2019-05-14T20:12:07.320Z,7.95
2019-05-14T20:14:41.712Z,9.05
2019-05-14T20:17:16.283Z,8.35
2019-05-14T20:19:50.716Z,8.53
2019-05-14T20:22:25.409Z,8.63
2019-05-14T20:24:59.997Z,9.13
2019-05-14T20:27:34.575Z,9.55
2019-05-14T20:30:09.544Z,8.73
2019-05-14T20:32:44.429Z,9.57
2019-05-14T20:35:30.409Z,9.10
2019-05-14T20:37:54.929Z,8.75
2019-05-14T20:40:29.194Z,9.67
2019-05-14T20:43:03.225Z,8.80
2019-05-14T20:45:39.133Z,8.63
2019-05-14T20:48:14.055Z,9.40
2019-05-14T20:50:49.332Z,10.40
2019-05-14T20:53:25.850Z,9.95
2019-05-14T20:56:00.543Z,9.70
2019-05-14T20:58:34.910Z,9.80
2019-05-14T21:01:11.479Z,9.60
2019-05-14T21:03:47.899Z,11.23
2019-05-14T21:06:21.689Z,12.83
2019-05-14T21:08:58.477Z,10.00
2019-05-14T21:11:33.027Z,10.93
2019-05-14T21:14:08.961Z,12.83
2019-05-14T21:16:43.787Z,13.25
2019-05-14T21:19:18.055Z,16.15
2019-05-14T21:21:52.910Z,15.50
2019-05-14T21:24:29.496Z,15.97
2019-05-14T21:27:03.454Z,15.45
2019-05-14T21:29:38.513Z,16.07
2019-05-14T21:32:13.271Z,16.13
2019-05-14T21:34:49.137Z,16.30
2019-05-14T21:37:23.879Z,19.10
2019-05-14T21:39:59.057Z,15.32
2019-05-14T21:42:33.691Z,16.00
2019-05-14T21:45:09.841Z,20.90
2019-05-14T21:47:43.794Z,16.93
2019-05-14T21:50:18.466Z,17.43
2019-05-14T21:52:53.280Z,17.27
2019-05-14T21:55:33.782Z,16.80
2019-05-14T21:58:13.869Z,16.73
2019-05-14T22:00:52.250Z,17.73
2019-05-14T22:03:29.152Z,16.57
2019-05-14T22:06:03.792Z,16.30
2019-05-14T22:08:39.401Z,16.67
2019-05-14T22:11:14.740Z,16.20
2019-05-14T22:13:49.733Z,14.90
2019-05-14T22:16:24.198Z,14.70
2019-05-14T22:18:59.341Z,15.10
2019-05-14T22:21:34.078Z,14.27
2019-05-14T22:24:08.636Z,15.70
2019-05-14T22:26:43.280Z,14.23
2019-05-14T22:29:17.961Z,14.50
2019-05-14T22:31:52.562Z,14.53
2019-05-14T22:34:34.372Z,14.63
2019-05-14T22:37:08.905Z,13.65
2019-05-14T22:40:04.643Z,13.53
2019-05-14T22:42:39.383Z,12.73
2019-05-14T22:45:35.812Z,15.03
2019-05-14T22:48:10.342Z,12.83
2019-05-14T22:50:45.285Z,14.23
2019-05-14T22:53:19.944Z,13.80
2019-05-14T22:55:54.540Z,13.57
2019-05-14T22:58:29.065Z,12.37
2019-05-14T23:01:14.416Z,15.00
2019-05-14T23:03:39.825Z,14.15
2019-05-14T23:06:14.724Z,13.70
2019-05-14T23:08:49.961Z,13.33
2019-05-14T23:11:24.597Z,13.13
2019-05-14T23:13:59.534Z,13.50
2019-05-14T23:16:38.254Z,13.43
2019-05-14T23:19:09.973Z,13.37
2019-05-14T23:21:44.905Z,13.88
2019-05-14T23:24:20.160Z,13.10
2019-05-14T23:26:58.334Z,14.23
2019-05-14T23:29:31.967Z,13.40
2019-05-14T23:32:08.129Z,14.63
2019-05-14T23:34:42.592Z,13.73
2019-05-14T23:37:18.140Z,13.30
2019-05-14T23:39:52.942Z,14.10
2019-05-14T23:42:28.059Z,14.65
2019-05-14T23:45:02.800Z,13.75
2019-05-14T23:47:38.348Z,13.90
2019-05-14T23:50:13.361Z,13.43
2019-05-14T23:52:49.381Z,12.57
2019-05-14T23:55:24.564Z,14.10
2019-05-14T23:57:59.022Z,14.27
